Time;durP1;ratioP1;P1;durP2;ratioP2;P2;SDS_P1;SDS_P2;PMS_P1;PMS_P2;Temp;Humidity;BMP_temperature;BMP_pressure;BME280_temperature;BME280_humidity;BME280_pressure;Samples;Min_cycle;Max_cycle;Signal;HPM_P1;HPM_P2
2022/04/06 00:07:39;;;;;;;15.05;7.80;;;;;;;9.78;100.00;99783.16;20951294;28;20052;-64
2022/04/06 00:17:41;;;;;;;11.35;7.65;;;;;;;9.74;100.00;99777.13;20952220;28;20057;-65
2022/04/06 00:27:43;;;;;;;10.70;7.10;;;;;;;9.74;100.00;99765.81;20951815;28;20040;-64
2022/04/06 00:37:44;;;;;;;13.32;7.50;;;;;;;9.81;100.00;99761.31;20950348;28;20045;-65
2022/04/06 00:47:47;;;;;;;11.50;7.03;;;;;;;9.74;100.00;99744.91;20949607;28;20456;-65
2022/04/06 00:57:49;;;;;;;10.23;6.45;;;;;;;9.75;100.00;99738.78;20947744;28;20473;-65
2022/04/06 01:07:53;;;;;;;9.65;6.75;;;;;;;9.73;100.00;99722.28;20946610;28;20045;-64
2022/04/06 01:17:54;;;;;;;8.88;6.05;;;;;;;9.71;99.63;99710.97;20947439;28;20359;-64
2022/04/06 01:27:56;;;;;;;10.95;7.10;;;;;;;9.76;99.67;99709.97;20947074;28;20048;-64
2022/04/06 01:37:58;;;;;;;9.95;5.80;;;;;;;9.64;100.00;99696.34;20943356;28;20071;-64
2022/04/06 01:47:59;;;;;;;9.05;6.18;;;;;;;9.65;100.00;99692.84;20940157;28;20045;-64
2022/04/06 01:58:01;;;;;;;9.07;6.07;;;;;;;9.64;100.00;99680.66;20942222;28;20429;-66
2022/04/06 02:08:02;;;;;;;10.80;6.30;;;;;;;9.71;100.00;99659.56;20942003;28;20045;-65
2022/04/06 02:18:04;;;;;;;9.20;5.68;;;;;;;9.65;100.00;99661.47;20941479;28;20053;-65
2022/04/06 02:28:06;;;;;;;8.57;5.43;;;;;;;9.71;100.00;99670.00;20937489;28;20071;-64
2022/04/06 02:38:07;;;;;;;8.65;5.60;;;;;;;9.83;100.00;99661.03;20940272;28;20392;-64
2022/04/06 02:48:09;;;;;;;9.20;5.50;;;;;;;9.87;100.00;99657.44;20939441;28;20049;-64
2022/04/06 02:58:11;;;;;;;7.78;4.90;;;;;;;9.77;100.00;99650.69;20936179;28;20049;-64
2022/04/06 03:08:12;;;;;;;6.82;4.20;;;;;;;9.71;100.00;99637.78;20938529;28;20132;-64
2022/04/06 03:18:14;;;;;;;7.38;4.10;;;;;;;9.69;100.00;99629.13;20938949;28;20049;-63
2022/04/06 03:28:16;;;;;;;8.60;3.83;;;;;;;9.65;100.00;99624.88;20944581;28;20049;-64
2022/04/06 03:38:17;;;;;;;9.57;4.18;;;;;;;9.68;100.00;99624.81;20954151;28;20056;-64
2022/04/06 03:48:22;;;;;;;7.93;3.97;;;;;;;9.62;100.00;99627.56;20953015;28;20437;-64
2022/04/06 03:58:24;;;;;;;7.45;3.78;;;;;;;9.64;100.00;99612.72;20953166;28;20049;-64
2022/04/06 04:08:26;;;;;;;8.15;4.82;;;;;;;9.64;100.00;99602.25;20954874;28;20548;-65
2022/04/06 04:18:29;;;;;;;7.60;4.60;;;;;;;9.67;100.00;99596.94;20954736;28;20436;-64
2022/04/06 04:28:30;;;;;;;9.48;4.72;;;;;;;9.66;100.00;99595.22;20951851;28;20109;-65
2022/04/06 04:38:32;;;;;;;7.95;4.40;;;;;;;9.62;100.00;99586.59;20948011;28;20063;-64
2022/04/06 04:48:33;;;;;;;10.10;6.00;;;;;;;9.68;100.00;99583.00;20948273;28;20041;-64
2022/04/06 04:58:35;;;;;;;7.68;4.45;;;;;;;9.63;100.00;99580.50;20948746;28;20053;-64
2022/04/06 05:08:37;;;;;;;8.38;4.80;;;;;;;9.71;100.00;99577.66;20949078;28;20456;-64
2022/04/06 05:18:38;;;;;;;7.07;4.10;;;;;;;9.62;100.00;99583.13;20946723;28;20063;-64
2022/04/06 05:28:43;;;;;;;7.47;3.93;;;;;;;9.63;100.00;99582.22;20947602;28;20045;-63
2022/04/06 05:38:44;;;;;;;8.23;4.63;;;;;;;9.65;100.00;99586.53;20944406;28;20056;-64
2022/04/06 05:48:46;;;;;;;7.75;4.55;;;;;;;9.72;100.00;99589.84;20942578;28;20505;-64
2022/04/06 05:58:47;;;;;;;7.50;4.05;;;;;;;9.71;100.00;99585.50;20942295;28;20148;-64
2022/04/06 06:08:49;;;;;;;7.35;3.60;;;;;;;9.76;100.00;99588.88;20942642;28;20044;-65
2022/04/06 06:18:50;;;;;;;5.57;3.13;;;;;;;9.84;100.00;99591.28;20943099;28;20665;-65
2022/04/06 06:28:52;;;;;;;5.68;3.13;;;;;;;9.92;100.00;99595.44;20942952;28;20076;-64
2022/04/06 06:38:54;;;;;;;7.38;3.25;;;;;;;10.01;99.61;99591.69;20940757;28;20972;-65
2022/04/06 06:49:02;;;;;;;6.78;2.85;;;;;;;10.03;99.44;99585.53;20939481;28;20044;-65
2022/04/06 06:59:04;;;;;;;6.47;2.83;;;;;;;10.09;99.51;99587.13;20902017;28;20106;-64
2022/04/06 07:09:05;;;;;;;6.07;2.97;;;;;;;10.21;98.67;99594.66;20883099;28;20095;-65
2022/04/06 07:19:07;;;;;;;6.40;3.13;;;;;;;10.22;98.68;99582.44;20909477;28;20056;-64
2022/04/06 07:29:11;;;;;;;6.70;3.35;;;;;;;10.37;96.12;99571.56;20917925;28;20048;-65
2022/04/06 07:39:13;;;;;;;9.10;3.40;;;;;;;10.59;92.73;99565.72;20930945;28;20060;-65
2022/04/06 07:49:14;;;;;;;8.15;3.50;;;;;;;11.09;87.02;99537.16;20921393;28;20041;-67
2022/04/06 07:59:16;;;;;;;5.72;2.88;;;;;;;11.41;81.41;99529.09;20927682;28;20072;-67
2022/04/06 08:09:17;;;;;;;5.45;2.70;;;;;;;11.22;82.93;99544.56;20921741;28;20048;-66
2022/04/06 08:19:19;;;;;;;5.38;3.15;;;;;;;11.26;82.46;99540.09;20940259;28;20060;-66
2022/04/06 08:29:20;;;;;;;6.70;3.13;;;;;;;11.86;81.94;99528.47;20944139;28;20055;-66
2022/04/06 08:39:22;;;;;;;5.53;2.90;;;;;;;12.13;79.79;99529.28;20942923;28;20573;-67
2022/04/06 08:49:27;;;;;;;7.47;3.70;;;;;;;11.66;81.52;99537.00;20942700;28;20055;-68
2022/04/06 08:59:28;;;;;;;7.53;4.38;;;;;;;11.91;79.28;99539.66;20940060;28;20063;-65
2022/04/06 09:09:32;;;;;;;6.28;3.65;;;;;;;11.59;82.14;99540.72;20933712;28;20478;-66
2022/04/06 09:19:38;;;;;;;9.75;4.20;;;;;;;11.97;79.24;99528.94;20921138;28;20139;-66
2022/04/06 09:29:39;;;;;;;7.07;3.47;;;;;;;12.43;75.72;99536.94;20917987;28;20045;-67
2022/04/06 09:39:43;;;;;;;9.32;3.92;;;;;;;12.61;70.70;99532.78;20914194;28;20052;-68
2022/04/06 09:49:44;;;;;;;8.75;3.75;;;;;;;12.83;68.51;99520.50;20937399;28;20060;-67
2022/04/06 09:59:47;;;;;;;7.25;3.08;;;;;;;12.95;69.45;99514.78;20935800;28;20045;-68
2022/04/06 10:09:50;;;;;;;8.27;3.45;;;;;;;12.63;71.90;99507.31;20935033;28;20044;-68
2022/04/06 10:20:02;;;;;;;7.38;3.60;;;;;;;12.71;72.05;99485.09;20934942;28;20092;-67
2022/04/06 10:30:19;;;;;;;8.07;3.10;;;;;;;13.10;66.64;99472.13;20933856;28;20106;-68
2022/04/06 10:40:21;;;;;;;5.35;2.70;;;;;;;13.62;63.68;99455.13;20931807;28;20053;-68
2022/04/06 10:50:23;;;;;;;5.90;2.75;;;;;;;14.00;57.04;99430.59;20932483;28;20347;-67
2022/04/06 11:00:27;;;;;;;6.85;2.75;;;;;;;13.86;56.81;99438.25;20932505;28;20060;-67
2022/04/06 11:10:30;;;;;;;7.87;3.23;;;;;;;13.55;56.92;99436.94;20922945;28;20510;-67
2022/04/06 11:20:34;;;;;;;6.55;2.88;;;;;;;14.23;57.09;99410.25;20928582;28;20041;-66
2022/04/06 11:30:38;;;;;;;6.68;2.88;;;;;;;14.06;56.46;99417.16;20932034;28;20409;-67
2022/04/06 11:40:40;;;;;;;7.10;2.63;;;;;;;14.12;56.68;99395.78;20930550;28;20212;-67
2022/04/06 11:50:44;;;;;;;7.20;2.60;;;;;;;14.33;56.92;99382.56;20922094;28;20045;-67
2022/04/06 12:00:57;;;;;;;8.57;2.90;;;;;;;14.57;56.33;99376.16;20944748;28;20098;-67
2022/04/06 12:10:59;;;;;;;5.72;2.70;;;;;;;14.49;55.62;99373.03;20943295;28;20049;-67
2022/04/06 12:21:01;;;;;;;6.63;3.00;;;;;;;14.76;54.96;99362.09;20943270;28;20068;-67
2022/04/06 12:31:05;;;;;;;6.35;2.92;;;;;;;15.35;54.57;99339.75;20943077;28;20045;-66
2022/04/06 12:41:09;;;;;;;6.93;3.57;;;;;;;15.21;53.63;99324.63;20941886;28;20053;-67
2022/04/06 12:51:26;;;;;;;5.38;2.47;;;;;;;14.71;54.16;99317.53;20940679;28;20052;-67
2022/04/06 13:01:27;;;;;;;7.38;2.97;;;;;;;14.71;54.10;99309.63;20940524;28;20735;-67
2022/04/06 13:11:29;;;;;;;6.78;2.80;;;;;;;14.67;52.80;99294.03;20922996;28;20048;-67
2022/04/06 13:21:33;;;;;;;5.60;2.30;;;;;;;15.00;52.17;99294.97;20939835;28;20052;-66
2022/04/06 13:31:39;;;;;;;9.10;2.37;;;;;;;14.35;52.88;99280.66;20934439;28;20048;-65
2022/04/06 13:41:41;;;;;;;4.68;1.70;;;;;;;14.40;51.37;99277.78;21081743;22;20056;-69
2022/04/06 13:51:44;;;;;;;5.03;1.60;;;;;;;14.34;51.13;99271.03;20940575;28;20056;-67
2022/04/06 14:01:46;;;;;;;5.68;1.42;;;;;;;14.40;49.80;99254.94;20938389;28;20070;-67
2022/04/06 14:11:49;;;;;;;4.18;1.50;;;;;;;14.43;49.81;99251.31;20939615;28;20052;-67
2022/04/06 14:21:51;;;;;;;5.15;1.48;;;;;;;14.30;50.51;99246.63;20952889;28;20048;-67
2022/04/06 14:31:53;;;;;;;7.60;1.42;;;;;;;14.19;52.13;99227.06;20974005;28;20446;-67
2022/04/06 14:41:56;;;;;;;4.22;1.33;;;;;;;14.22;52.44;99225.09;20966987;28;20498;-66
2022/04/06 14:51:57;;;;;;;6.35;1.20;;;;;;;14.03;52.44;99206.72;20934693;28;20106;-68
2022/04/06 15:01:58;;;;;;;4.90;1.20;;;;;;;13.97;52.64;99193.88;20932678;28;20067;-66
2022/04/06 15:12:01;;;;;;;8.90;3.80;;;;;;;14.33;51.76;99177.19;20936461;28;20105;-66
2022/04/06 15:22:03;;;;;;;2.58;0.80;;;;;;;14.34;49.48;99182.38;20934942;28;20049;-66
2022/04/06 15:32:05;;;;;;;3.67;0.95;;;;;;;14.33;49.99;99174.56;20948815;28;20094;-65
2022/04/06 15:42:07;;;;;;;2.13;1.00;;;;;;;14.20;49.41;99178.72;20947756;28;20045;-66
2022/04/06 15:52:09;;;;;;;7.28;1.08;;;;;;;14.14;49.82;99158.00;20947394;28;20079;-66
2022/04/06 16:02:11;;;;;;;2.78;0.82;;;;;;;13.86;51.11;99160.19;20945870;28;20056;-66
2022/04/06 16:12:12;;;;;;;3.30;1.35;;;;;;;13.99;51.40;99151.69;20944953;28;20135;-66
2022/04/06 16:22:15;;;;;;;3.95;1.10;;;;;;;13.54;52.99;99156.47;20946403;28;20056;-66
2022/04/06 16:32:17;;;;;;;6.30;1.75;;;;;;;13.46;53.75;99156.00;20943779;28;20040;-66
2022/04/06 16:42:18;;;;;;;5.60;1.27;;;;;;;13.33;54.90;99139.09;20943275;28;20423;-66
2022/04/06 17:02:44;;;;;;;7.05;1.48;;;;;;;13.13;56.71;99123.34;20941026;28;20116;-68
2022/04/06 17:12:45;;;;;;;4.85;1.60;;;;;;;13.06;57.66;99128.91;20941662;28;20106;-68
2022/04/06 17:22:47;;;;;;;5.75;1.73;;;;;;;12.98;58.54;99115.28;20940284;28;20048;-68
2022/04/06 17:32:50;;;;;;;4.00;1.42;;;;;;;12.84;59.40;99107.19;20939802;28;20041;-68
2022/04/06 17:42:52;;;;;;;4.07;1.75;;;;;;;12.67;60.64;99101.84;20934943;28;20494;-68
2022/04/06 17:52:56;;;;;;;6.73;1.80;;;;;;;12.60;61.88;99093.41;20941158;28;20557;-68
2022/04/06 18:02:57;;;;;;;8.52;2.40;;;;;;;12.55;62.15;99080.47;20936499;28;20099;-68
2022/04/06 18:23:20;;;;;;;7.47;2.28;;;;;;;12.51;64.20;99083.31;20935977;28;20052;-65
2022/04/06 18:33:21;;;;;;;6.65;3.03;;;;;;;12.44;66.18;99087.09;20938948;28;20053;-65
2022/04/06 18:43:23;;;;;;;7.70;3.03;;;;;;;12.31;70.99;99099.91;20892389;28;20056;-69
2022/04/06 18:53:26;;;;;;;11.77;3.20;;;;;;;12.25;74.80;99094.94;20931428;28;20563;-67
2022/04/06 19:03:29;;;;;;;8.02;3.28;;;;;;;12.11;78.06;99097.28;20933078;28;20052;-67
2022/04/06 19:13:30;;;;;;;8.27;3.25;;;;;;;11.99;80.48;99099.53;20934896;28;20045;-67
2022/04/06 19:23:32;;;;;;;9.75;3.70;;;;;;;11.88;82.69;99099.13;20934546;28;20563;-67
2022/04/06 19:33:33;;;;;;;9.77;3.58;;;;;;;11.84;84.60;99092.31;20933112;28;20107;-67
2022/04/06 19:43:35;;;;;;;8.57;2.90;;;;;;;11.79;84.54;99083.75;20887396;22;20053;-67
2022/04/06 19:53:37;;;;;;;8.77;2.97;;;;;;;11.73;83.71;99068.25;20712566;28;20078;-66
2022/04/06 20:03:39;;;;;;;7.85;3.40;;;;;;;11.61;86.98;99053.06;20709859;28;20487;-66
2022/04/06 20:13:41;;;;;;;7.03;3.72;;;;;;;11.50;88.04;99056.97;20727138;28;20072;-66
2022/04/06 20:23:44;;;;;;;8.02;3.55;;;;;;;11.55;87.49;99055.00;20729114;28;20058;-66
2022/04/06 20:33:45;;;;;;;9.65;3.33;;;;;;;11.51;87.71;99050.81;20726200;28;20046;-66
2022/04/06 20:43:47;;;;;;;8.07;3.22;;;;;;;11.52;88.31;99036.78;20725950;28;20057;-66
2022/04/06 20:53:48;;;;;;;8.05;3.33;;;;;;;11.64;88.03;99031.94;20755847;28;20049;-66
2022/04/06 21:03:50;;;;;;;5.63;3.05;;;;;;;11.60;88.37;99025.97;20779014;28;20054;-65
2022/04/06 21:13:51;;;;;;;4.60;2.50;;;;;;;11.63;88.40;99025.84;20760201;28;20050;-65
2022/04/06 21:23:53;;;;;;;5.68;2.72;;;;;;;11.67;89.35;99023.94;20777524;28;20057;-65
2022/04/06 21:33:56;;;;;;;5.80;3.00;;;;;;;11.61;90.35;99011.09;20774439;28;20100;-66
2022/04/06 21:43:58;;;;;;;6.50;2.70;;;;;;;11.64;90.73;99005.72;20774090;28;20054;-65
2022/04/06 21:53:59;;;;;;;4.93;2.63;;;;;;;11.46;92.28;99009.97;20773407;28;20578;-66
2022/04/06 22:04:02;;;;;;;5.72;2.25;;;;;;;11.44;92.53;98999.53;20773453;28;20049;-66
2022/04/06 22:14:04;;;;;;;4.05;2.00;;;;;;;11.35;92.68;99004.31;20780981;28;20045;-66
2022/04/06 22:24:07;;;;;;;3.42;1.75;;;;;;;11.37;92.03;98998.09;20775910;28;20050;-66
2022/04/06 22:34:09;;;;;;;3.88;1.83;;;;;;;11.33;91.92;99021.88;20776948;28;20410;-66
2022/04/06 22:44:11;;;;;;;2.65;1.27;;;;;;;11.04;93.77;99022.13;20777933;28;20054;-66
2022/04/06 22:54:12;;;;;;;4.15;1.50;;;;;;;10.91;94.59;99010.41;20777982;28;20049;-66
2022/04/06 23:04:14;;;;;;;3.40;1.13;;;;;;;10.83;95.02;99025.59;20777138;28;20073;-65
2022/04/06 23:14:16;;;;;;;3.40;1.60;;;;;;;10.91;92.67;99020.03;20777401;28;20128;-66
2022/04/06 23:24:17;;;;;;;3.75;1.88;;;;;;;11.19;85.73;99004.94;20776082;28;20105;-66
2022/04/06 23:34:19;;;;;;;4.90;1.70;;;;;;;11.14;84.15;99000.81;20774812;28;20522;-66
2022/04/06 23:44:21;;;;;;;4.95;2.15;;;;;;;11.01;84.38;98980.34;20781563;28;20093;-66
2022/04/06 23:54:22;;;;;;;4.60;1.73;;;;;;;10.92;83.82;98972.00;20791117;28;20438;-65
